Terminal Aerodrome Forecast
Issued by NWS

Home | Current Version | Previous Version | Graphics & Text | Print | Product List | Glossary On
Versions: 1 2 3 4 5 6 7 8 9 10 11 12 13 14 15 16 17 18 19
630
FTUS43 KBIS 181732
TAFMOT
TAF
KMOT 181732Z 1818/1918 00000KT P6SM SKC
     FM190200 12006KT P6SM FEW100 SCT250
     FM190900 11011KT P6SM SCT200 WS020/15040KT
     FM191200 12012KT P6SM VCSH SCT015 OVC090
     FM191700 16012KT P6SM OVC050=

USA.gov is the U.S. government's official web portal to all federal, state and local government web resources and services.